Aviation Digital Data Service (ADDS)

Output produced by TAFs form (1840 UTC 29 September 2016)
found at http://aviationweather.gov/adds/tafs/
 
KTUS 291728Z 2918/3018 15007KT P6SM FEW070 SCT140 
     FM292000 21009KT P6SM VCSH SCT080 BKN150 
     TEMPO 2922/2924 VRB20G30KT 5SM TSRA BKN080CB 
     FM300200 15007KT P6SM FEW080 BKN120 
     FM300800 13006KT P6SM SCT120